PWSweather.com
Personal Weather Stations
Station Observations
NAGEO265NE
Bedzin GrodziecPL 42-506

Bedzin GrodziecPL 42-506

Lat: 50.347, Lon: 19.079

Elevation: 948

Station Type: WH1080

http://www.meteo-grodziec.pl/

High Low Average
Temperature 43.0°F6.1°C 20.1°F-6.6°C 32.0°F0.0°C
Dew Point 42.3°F5.7°C 11.3°F-11.5°C 24.8°F-4.0°C
Winds 10.0 mph 16.1 kmh Calm Calm 4.0 mph E6.4 kmh E
Wind Gusts 21.0 mph33.8 kmh 2.0 mph3.2 kmh 12.0 mph19.3 kmh
Humidity 97% 47% 76%
Pressure 30.81 in1043.3 mb 30.09 in1019.0 mb -
Precipitation 0.13 in3.3 mm - -
Hour Temp Dew Point Humidity Winds Wind Gusts Pressure Precip Precip Rate Daily Precip Total
12:00 AM 41.4°F5.2°C 40.3°F4.6°C 96% 1.0 mph W1.6 kmh W 5.0 mph8.0 kmh 30.12 in1020.0 mb 0.03 in0.8 mm 0.00 in0.0 mm 0.03 in0.8 mm
12:05 AM 41.4°F5.2°C 40.3°F4.6°C 96% 1.0 mph WNW1.6 kmh WNW 5.0 mph8.0 kmh 30.12 in1020.0 mb 0.03 in0.8 mm 0.00 in0.0 mm 0.03 in0.8 mm
12:10 AM 41.4°F5.2°C 40.3°F4.6°C 96% Calm Calm 3.0 mph4.8 kmh 30.12 in1020.0 mb 0.04 in1.0 mm 0.12 in3.0 mm 0.01 in0.3 mm
12:15 AM 41.4°F5.2°C 40.3°F4.6°C 96% Calm Calm 5.0 mph8.0 kmh 30.12 in1020.0 mb 0.05 in1.3 mm 0.12 in3.0 mm 0.02 in0.5 mm
12:20 AM 41.4°F5.2°C 40.3°F4.6°C 96% 1.0 mph NW1.6 kmh NW 5.0 mph8.0 kmh 30.12 in1020.0 mb 0.04 in1.0 mm 0.00 in0.0 mm 0.02 in0.5 mm
12:25 AM 41.4°F5.2°C 40.3°F4.6°C 96% 1.0 mph NW1.6 kmh NW 6.0 mph9.7 kmh 30.12 in1020.0 mb 0.05 in1.3 mm 0.12 in3.0 mm 0.02 in0.5 mm
12:30 AM 41.4°F5.2°C 40.3°F4.6°C 96% 1.0 mph WNW1.6 kmh WNW 6.0 mph9.7 kmh 30.12 in1020.0 mb 0.05 in1.3 mm 0.00 in0.0 mm 0.02 in0.5 mm
12:35 AM 41.5°F5.3°C 40.5°F4.7°C 96% 1.0 mph WSW1.6 kmh WSW 3.0 mph4.8 kmh 30.12 in1020.0 mb 0.05 in1.3 mm 0.00 in0.0 mm 0.03 in0.8 mm
12:40 AM 41.4°F5.2°C 40.3°F4.6°C 96% Calm Calm 6.0 mph9.7 kmh 30.12 in1020.0 mb 0.05 in1.3 mm 0.00 in0.0 mm 0.03 in0.8 mm
12:45 AM 41.4°F5.2°C 40.3°F4.6°C 96% Calm Calm 6.0 mph9.7 kmh 30.12 in1020.0 mb 0.04 in1.0 mm 0.00 in0.0 mm 0.03 in0.8 mm
12:50 AM 41.5°F5.3°C 40.5°F4.7°C 96% Calm Calm 4.0 mph6.4 kmh 30.11 in1019.6 mb 0.05 in1.3 mm 0.12 in3.0 mm 0.04 in1.0 mm
12:55 AM 41.4°F5.2°C 40.3°F4.6°C 96% 1.0 mph WSW1.6 kmh WSW 5.0 mph8.0 kmh 30.11 in1019.6 mb 0.04 in1.0 mm 0.00 in0.0 mm 0.04 in1.0 mm
01:00 AM 41.5°F5.3°C 40.5°F4.7°C 96% 1.0 mph W1.6 kmh W 5.0 mph8.0 kmh 30.11 in1019.6 mb 0.04 in1.0 mm 0.00 in0.0 mm 0.04 in1.0 mm
01:05 AM 41.4°F5.2°C 40.3°F4.6°C 96% 1.0 mph W1.6 kmh W 3.0 mph4.8 kmh 30.11 in1019.6 mb 0.04 in1.0 mm 0.00 in0.0 mm 0.04 in1.0 mm
01:10 AM 41.4°F5.2°C 40.3°F4.6°C 96% Calm Calm 4.0 mph6.4 kmh 30.11 in1019.6 mb 0.03 in0.8 mm 0.00 in0.0 mm 0.04 in1.0 mm
01:15 AM 41.5°F5.3°C 40.5°F4.7°C 96% Calm Calm 4.0 mph6.4 kmh 30.11 in1019.6 mb 0.03 in0.8 mm 0.00 in0.0 mm 0.05 in1.3 mm
01:20 AM 41.5°F5.3°C 40.5°F4.7°C 96% 1.0 mph NW1.6 kmh NW 4.0 mph6.4 kmh 30.11 in1019.6 mb 0.03 in0.8 mm 0.00 in0.0 mm 0.05 in1.3 mm
01:25 AM 41.5°F5.3°C 40.5°F4.7°C 96% 1.0 mph NW1.6 kmh NW 4.0 mph6.4 kmh 30.11 in1019.6 mb 0.02 in0.5 mm 0.00 in0.0 mm 0.05 in1.3 mm
01:30 AM 41.5°F5.3°C 40.5°F4.7°C 96% 1.0 mph W1.6 kmh W 3.0 mph4.8 kmh 30.11 in1019.6 mb 0.02 in0.5 mm 0.00 in0.0 mm 0.05 in1.3 mm
01:35 AM 41.5°F5.3°C 40.5°F4.7°C 96% Calm Calm 3.0 mph4.8 kmh 30.11 in1019.6 mb 0.02 in0.5 mm 0.00 in0.0 mm 0.05 in1.3 mm
01:40 AM 41.5°F5.3°C 40.5°F4.7°C 96% Calm Calm 3.0 mph4.8 kmh 30.11 in1019.6 mb 0.02 in0.5 mm 0.00 in0.0 mm 0.05 in1.3 mm
01:45 AM 41.5°F5.3°C 40.5°F4.7°C 96% 1.0 mph NW1.6 kmh NW 4.0 mph6.4 kmh 30.11 in1019.6 mb 0.02 in0.5 mm 0.00 in0.0 mm 0.06 in1.5 mm
01:50 AM 41.5°F5.3°C 40.5°F4.7°C 96% Calm Calm 4.0 mph6.4 kmh 30.10 in1019.3 mb 0.02 in0.5 mm 0.00 in0.0 mm 0.06 in1.5 mm
01:55 AM 41.7°F5.4°C 40.6°F4.8°C 96% Calm Calm 3.0 mph4.8 kmh 30.10 in1019.3 mb 0.02 in0.5 mm 0.00 in0.0 mm 0.06 in1.5 mm
02:00 AM 41.7°F5.4°C 40.6°F4.8°C 96% Calm Calm 4.0 mph6.4 kmh 30.10 in1019.3 mb 0.02 in0.5 mm 0.00 in0.0 mm 0.06 in1.5 mm
02:05 AM 41.7°F5.4°C 40.6°F4.8°C 96% Calm Calm 4.0 mph6.4 kmh 30.10 in1019.3 mb 0.02 in0.5 mm 0.00 in0.0 mm 0.06 in1.5 mm
02:10 AM 41.7°F5.4°C 40.6°F4.8°C 96% Calm Calm 3.0 mph4.8 kmh 30.10 in1019.3 mb 0.02 in0.5 mm 0.00 in0.0 mm 0.06 in1.5 mm
02:15 AM 41.7°F5.4°C 40.8°F4.9°C 96% Calm Calm 4.0 mph6.4 kmh 30.10 in1019.3 mb 0.02 in0.5 mm 0.00 in0.0 mm 0.06 in1.5 mm
02:20 AM 41.9°F5.5°C 40.8°F4.9°C 96% Calm Calm 4.0 mph6.4 kmh 30.10 in1019.3 mb 0.02 in0.5 mm 0.00 in0.0 mm 0.06 in1.5 mm
02:25 AM 41.9°F5.5°C 40.8°F4.9°C 96% 1.0 mph NW1.6 kmh NW 5.0 mph8.0 kmh 30.10 in1019.3 mb 0.02 in0.5 mm 0.00 in0.0 mm 0.07 in1.8 mm
02:30 AM 42.1°F5.6°C 41.0°F5.0°C 96% 1.0 mph NW1.6 kmh NW 5.0 mph8.0 kmh 30.10 in1019.3 mb 0.02 in0.5 mm 0.00 in0.0 mm 0.07 in1.8 mm
02:35 AM 42.1°F5.6°C 41.0°F5.0°C 96% 1.0 mph NW1.6 kmh NW 5.0 mph8.0 kmh 30.10 in1019.3 mb 0.02 in0.5 mm 0.00 in0.0 mm 0.07 in1.8 mm
02:40 AM 42.1°F5.6°C 41.4°F5.2°C 97% 1.0 mph NW1.6 kmh NW 5.0 mph8.0 kmh 30.09 in1019.0 mb 0.02 in0.5 mm 0.00 in0.0 mm 0.07 in1.8 mm
02:45 AM 42.3°F5.7°C 41.4°F5.2°C 97% 1.0 mph NW1.6 kmh NW 6.0 mph9.7 kmh 30.09 in1019.0 mb 0.02 in0.5 mm 0.00 in0.0 mm 0.07 in1.8 mm
02:50 AM 42.3°F5.7°C 41.5°F5.3°C 97% 1.0 mph NW1.6 kmh NW 6.0 mph9.7 kmh 30.10 in1019.3 mb 0.01 in0.3 mm 0.00 in0.0 mm 0.07 in1.8 mm
02:55 AM 42.3°F5.7°C 41.5°F5.3°C 97% 1.0 mph NW1.6 kmh NW 4.0 mph6.4 kmh 30.10 in1019.3 mb 0.01 in0.3 mm 0.00 in0.0 mm 0.07 in1.8 mm
03:00 AM 42.4°F5.8°C 41.5°F5.3°C 97% 1.0 mph NW1.6 kmh NW 4.0 mph6.4 kmh 30.10 in1019.3 mb 0.02 in0.5 mm 0.01 in0.3 mm 0.08 in2.0 mm
03:05 AM 42.4°F5.8°C 41.5°F5.3°C 97% 1.0 mph NW1.6 kmh NW 4.0 mph6.4 kmh 30.09 in1019.0 mb 0.02 in0.5 mm 0.00 in0.0 mm 0.08 in2.0 mm
03:10 AM 42.4°F5.8°C 41.7°F5.4°C 97% 1.0 mph NW1.6 kmh NW 7.0 mph11.3 kmh 30.09 in1019.0 mb 0.02 in0.5 mm 0.00 in0.0 mm 0.08 in2.0 mm
03:15 AM 42.4°F5.8°C 41.7°F5.4°C 97% 1.0 mph NW1.6 kmh NW 7.0 mph11.3 kmh 30.09 in1019.0 mb 0.02 in0.5 mm 0.00 in0.0 mm 0.08 in2.0 mm
03:20 AM 42.4°F5.8°C 41.7°F5.4°C 97% 1.0 mph NW1.6 kmh NW 5.0 mph8.0 kmh 30.09 in1019.0 mb 0.02 in0.5 mm 0.00 in0.0 mm 0.08 in2.0 mm
03:25 AM 42.6°F5.9°C 41.7°F5.4°C 97% 1.0 mph NW1.6 kmh NW 4.0 mph6.4 kmh 30.09 in1019.0 mb 0.02 in0.5 mm 0.00 in0.0 mm 0.09 in2.3 mm
03:30 AM 42.6°F5.9°C 41.7°F5.4°C 97% 1.0 mph NW1.6 kmh NW 4.0 mph6.4 kmh 30.09 in1019.0 mb 0.02 in0.5 mm 0.00 in0.0 mm 0.09 in2.3 mm
03:35 AM 42.6°F5.9°C 41.7°F5.4°C 97% 1.0 mph NW1.6 kmh NW 6.0 mph9.7 kmh 30.09 in1019.0 mb 0.02 in0.5 mm 0.00 in0.0 mm 0.09 in2.3 mm
03:40 AM 42.6°F5.9°C 41.9°F5.5°C 97% 1.0 mph NW1.6 kmh NW 6.0 mph9.7 kmh 30.09 in1019.0 mb 0.02 in0.5 mm 0.00 in0.0 mm 0.09 in2.3 mm
03:45 AM 42.6°F5.9°C 41.9°F5.5°C 97% 1.0 mph NW1.6 kmh NW 5.0 mph8.0 kmh 30.09 in1019.0 mb 0.02 in0.5 mm 0.00 in0.0 mm 0.09 in2.3 mm
03:50 AM 42.6°F5.9°C 41.9°F5.5°C 97% 1.0 mph NW1.6 kmh NW 5.0 mph8.0 kmh 30.09 in1019.0 mb 0.02 in0.5 mm 0.00 in0.0 mm 0.09 in2.3 mm
03:55 AM 42.8°F6.0°C 42.1°F5.6°C 97% 1.0 mph NW1.6 kmh NW 6.0 mph9.7 kmh 30.09 in1019.0 mb 0.03 in0.8 mm 0.12 in3.0 mm 0.10 in2.5 mm
04:00 AM 42.8°F6.0°C 42.1°F5.6°C 97% 1.0 mph NW1.6 kmh NW 6.0 mph9.7 kmh 30.10 in1019.3 mb 0.02 in0.5 mm 0.00 in0.0 mm 0.10 in2.5 mm
04:05 AM 42.8°F6.0°C 42.1°F5.6°C 97% 1.0 mph NW1.6 kmh NW 6.0 mph9.7 kmh 30.10 in1019.3 mb 0.02 in0.5 mm 0.00 in0.0 mm 0.10 in2.5 mm
04:10 AM 42.8°F6.0°C 42.1°F5.6°C 97% 1.0 mph NW1.6 kmh NW 6.0 mph9.7 kmh 30.10 in1019.3 mb 0.02 in0.5 mm 0.00 in0.0 mm 0.10 in2.5 mm
04:15 AM 42.8°F6.0°C 42.1°F5.6°C 97% 2.0 mph NW3.2 kmh NW 6.0 mph9.7 kmh 30.10 in1019.3 mb 0.03 in0.8 mm 0.12 in3.0 mm 0.11 in2.8 mm
04:20 AM 43.0°F6.1°C 42.1°F5.6°C 97% 2.0 mph NW3.2 kmh NW 7.0 mph11.3 kmh 30.10 in1019.3 mb 0.03 in0.8 mm 0.00 in0.0 mm 0.11 in2.8 mm
04:25 AM 43.0°F6.1°C 42.1°F5.6°C 97% 3.0 mph NW4.8 kmh NW 7.0 mph11.3 kmh 30.10 in1019.3 mb 0.02 in0.5 mm 0.00 in0.0 mm 0.11 in2.8 mm
04:30 AM 43.0°F6.1°C 42.1°F5.6°C 97% 2.0 mph NW3.2 kmh NW 6.0 mph9.7 kmh 30.11 in1019.6 mb 0.02 in0.5 mm 0.00 in0.0 mm 0.11 in2.8 mm
04:35 AM 43.0°F6.1°C 42.3°F5.7°C 97% 3.0 mph NNW4.8 kmh NNW 8.0 mph12.9 kmh 30.11 in1019.6 mb 0.03 in0.8 mm 0.12 in3.0 mm 0.12 in3.0 mm
04:40 AM 42.8°F6.0°C 42.1°F5.6°C 97% 4.0 mph N6.4 kmh N 11.0 mph17.7 kmh 30.11 in1019.6 mb 0.03 in0.8 mm 0.00 in0.0 mm 0.12 in3.0 mm
04:45 AM 42.4°F5.8°C 41.5°F5.3°C 97% 5.0 mph N8.0 kmh N 14.0 mph22.5 kmh 30.11 in1019.6 mb 0.02 in0.5 mm 0.00 in0.0 mm 0.12 in3.0 mm
04:50 AM 41.7°F5.4°C 41.0°F5.0°C 97% 6.0 mph NNE9.7 kmh NNE 14.0 mph22.5 kmh 30.11 in1019.6 mb 0.03 in0.8 mm 0.12 in3.0 mm 0.13 in3.3 mm
04:55 AM 41.5°F5.3°C 40.8°F4.9°C 97% 6.0 mph NNE9.7 kmh NNE 12.0 mph19.3 kmh 30.12 in1020.0 mb 0.02 in0.5 mm 0.00 in0.0 mm 0.13 in3.3 mm
05:00 AM 41.4°F5.2°C 40.6°F4.8°C 97% 4.0 mph N6.4 kmh N 12.0 mph19.3 kmh 30.12 in1020.0 mb 0.02 in0.5 mm 0.00 in0.0 mm 0.13 in3.3 mm
05:05 AM 41.2°F5.1°C 40.3°F4.6°C 97% 3.0 mph N4.8 kmh N 12.0 mph19.3 kmh 30.12 in1020.0 mb 0.02 in0.5 mm 0.00 in0.0 mm 0.13 in3.3 mm
05:10 AM 40.8°F4.9°C 39.9°F4.4°C 96% 3.0 mph N4.8 kmh N 12.0 mph19.3 kmh 30.12 in1020.0 mb 0.02 in0.5 mm 0.00 in0.0 mm 0.13 in3.3 mm
05:15 AM 40.6°F4.8°C 39.6°F4.2°C 96% 4.0 mph N6.4 kmh N 10.0 mph16.1 kmh 30.12 in1020.0 mb 0.02 in0.5 mm 0.00 in0.0 mm 0.13 in3.3 mm
05:20 AM 40.5°F4.7°C 39.4°F4.1°C 96% 4.0 mph N6.4 kmh N 11.0 mph17.7 kmh 30.13 in1020.3 mb 0.02 in0.5 mm 0.00 in0.0 mm 0.13 in3.3 mm
05:25 AM 40.3°F4.6°C 39.2°F4.0°C 96% 4.0 mph N6.4 kmh N 11.0 mph17.7 kmh 30.13 in1020.3 mb 0.02 in0.5 mm 0.00 in0.0 mm 0.13 in3.3 mm
05:30 AM 40.3°F4.6°C 39.2°F4.0°C 96% 3.0 mph N4.8 kmh N 9.0 mph14.5 kmh 30.13 in1020.3 mb 0.02 in0.5 mm 0.00 in0.0 mm 0.13 in3.3 mm
05:35 AM 39.9°F4.4°C 39.0°F3.9°C 96% 4.0 mph N6.4 kmh N 14.0 mph22.5 kmh 30.13 in1020.3 mb 0.01 in0.3 mm 0.00 in0.0 mm 0.13 in3.3 mm
05:40 AM 39.9°F4.4°C 38.8°F3.8°C 96% 5.0 mph N8.0 kmh N 14.0 mph22.5 kmh 30.14 in1020.7 mb 0.02 in0.5 mm 0.12 in3.0 mm 0.13 in3.3 mm
05:45 AM 39.6°F4.2°C 38.5°F3.6°C 96% 6.0 mph N9.7 kmh N 17.0 mph27.4 kmh 30.14 in1020.7 mb 0.02 in0.5 mm 0.00 in0.0 mm 0.13 in3.3 mm
05:50 AM 39.0°F3.9°C 38.1°F3.4°C 96% 7.0 mph NNE11.3 kmh NNE 17.0 mph27.4 kmh 30.14 in1020.7 mb 0.01 in0.3 mm 0.00 in0.0 mm 0.13 in3.3 mm
05:55 AM 38.5°F3.6°C 37.2°F2.9°C 95% 7.0 mph NE11.3 kmh NE 15.0 mph24.1 kmh 30.15 in1021.0 mb 0.01 in0.3 mm 0.00 in0.0 mm 0.13 in3.3 mm
06:00 AM 37.9°F3.3°C 36.7°F2.6°C 95% 7.0 mph NE11.3 kmh NE 19.0 mph30.6 kmh 30.16 in1021.3 mb 0.01 in0.3 mm 0.00 in0.0 mm 0.13 in3.3 mm
06:05 AM 37.2°F2.9°C 36.0°F2.2°C 95% 8.0 mph NE12.9 kmh NE 19.0 mph30.6 kmh 30.17 in1021.7 mb 0.01 in0.3 mm 0.00 in0.0 mm 0.13 in3.3 mm
06:10 AM 36.3°F2.4°C 34.7°F1.5°C 94% 8.0 mph NE12.9 kmh NE 19.0 mph30.6 kmh 30.17 in1021.7 mb 0.01 in0.3 mm 0.00 in0.0 mm 0.13 in3.3 mm
06:15 AM 35.8°F2.1°C 34.2°F1.2°C 94% 7.0 mph NNE11.3 kmh NNE 16.0 mph25.7 kmh 30.18 in1022.0 mb 0.01 in0.3 mm 0.00 in0.0 mm 0.13 in3.3 mm
06:20 AM 35.1°F1.7°C 33.6°F0.9°C 94% 7.0 mph NNE11.3 kmh NNE 16.0 mph25.7 kmh 30.19 in1022.4 mb 0.01 in0.3 mm 0.00 in0.0 mm 0.13 in3.3 mm
06:25 AM 34.7°F1.5°C 33.1°F0.6°C 94% 6.0 mph NNE9.7 kmh NNE 16.0 mph25.7 kmh 30.19 in1022.4 mb 0.01 in0.3 mm 0.00 in0.0 mm 0.13 in3.3 mm
06:30 AM 34.2°F1.2°C 32.7°F0.4°C 94% 7.0 mph NNE11.3 kmh NNE 17.0 mph27.4 kmh 30.20 in1022.7 mb 0.01 in0.3 mm 0.00 in0.0 mm 0.13 in3.3 mm
06:35 AM 34.0°F1.1°C 32.4°F0.2°C 94% 7.0 mph NNE11.3 kmh NNE 17.0 mph27.4 kmh 30.19 in1022.4 mb 0.01 in0.3 mm 0.00 in0.0 mm 0.13 in3.3 mm
06:40 AM 33.6°F0.9°C 32.0°F0.0°C 94% 7.0 mph NE11.3 kmh NE 18.0 mph29.0 kmh 30.20 in1022.7 mb 0.00 in0.0 mm 0.00 in0.0 mm 0.13 in3.3 mm
06:45 AM 33.4°F0.8°C 32.0°F0.0°C 94% 7.0 mph NE11.3 kmh NE 18.0 mph29.0 kmh 30.21 in1023.0 mb 0.00 in0.0 mm 0.00 in0.0 mm 0.13 in3.3 mm
06:50 AM 33.4°F0.8°C 31.8°F-0.1°C 94% 7.0 mph NNE11.3 kmh NNE 15.0 mph24.1 kmh 30.22 in1023.4 mb 0.00 in0.0 mm 0.00 in0.0 mm 0.13 in3.3 mm
06:55 AM 33.3°F0.7°C 31.8°F-0.1°C 94% 7.0 mph NNE11.3 kmh NNE 16.0 mph25.7 kmh 30.23 in1023.7 mb 0.00 in0.0 mm 0.00 in0.0 mm 0.13 in3.3 mm
07:00 AM 33.1°F0.6°C 31.6°F-0.2°C 94% 8.0 mph NE12.9 kmh NE 21.0 mph33.8 kmh 30.23 in1023.7 mb 0.00 in0.0 mm 0.00 in0.0 mm 0.13 in3.3 mm
07:05 AM 32.7°F0.4°C 30.9°F-0.6°C 93% 9.0 mph NE14.5 kmh NE 21.0 mph33.8 kmh 30.24 in1024.0 mb 0.00 in0.0 mm 0.00 in0.0 mm 0.13 in3.3 mm
07:10 AM 32.5°F0.3°C 30.7°F-0.7°C 93% 8.0 mph NE12.9 kmh NE 18.0 mph29.0 kmh 30.24 in1024.0 mb 0.00 in0.0 mm 0.00 in0.0 mm 0.13 in3.3 mm
07:15 AM 32.5°F0.3°C 30.7°F-0.7°C 93% 7.0 mph NE11.3 kmh NE 16.0 mph25.7 kmh 30.25 in1024.4 mb 0.00 in0.0 mm 0.00 in0.0 mm 0.13 in3.3 mm
07:20 AM 32.4°F0.2°C 30.4°F-0.9°C 92% 7.0 mph NE11.3 kmh NE 17.0 mph27.4 kmh 30.25 in1024.4 mb 0.00 in0.0 mm 0.00 in0.0 mm 0.13 in3.3 mm
07:25 AM 32.4°F0.2°C 30.2°F-1.0°C 92% 7.0 mph NE11.3 kmh NE 17.0 mph27.4 kmh 30.26 in1024.7 mb 0.00 in0.0 mm 0.00 in0.0 mm 0.13 in3.3 mm
07:30 AM 32.2°F0.1°C 29.8°F-1.2°C 91% 8.0 mph NE12.9 kmh NE 18.0 mph29.0 kmh 30.27 in1025.1 mb 0.00 in0.0 mm 0.00 in0.0 mm 0.13 in3.3 mm
07:35 AM 32.2°F0.1°C 29.8°F-1.2°C 91% 9.0 mph NE14.5 kmh NE 18.0 mph29.0 kmh 30.27 in1025.1 mb 0.00 in0.0 mm 0.00 in0.0 mm 0.13 in3.3 mm
07:40 AM 32.4°F0.2°C 30.0°F-1.1°C 91% 7.0 mph NE11.3 kmh NE 18.0 mph29.0 kmh 30.28 in1025.4 mb 0.00 in0.0 mm 0.00 in0.0 mm 0.13 in3.3 mm
07:45 AM 32.2°F0.1°C 29.8°F-1.2°C 91% 5.0 mph NE8.0 kmh NE 13.0 mph20.9 kmh 30.28 in1025.4 mb 0.00 in0.0 mm 0.00 in0.0 mm 0.13 in3.3 mm
07:50 AM 32.2°F0.1°C 29.8°F-1.2°C 91% 4.0 mph NE6.4 kmh NE 15.0 mph24.1 kmh 30.29 in1025.7 mb 0.00 in0.0 mm 0.00 in0.0 mm 0.13 in3.3 mm
07:55 AM 31.8°F-0.1°C 29.5°F-1.4°C 91% 7.0 mph NE11.3 kmh NE 19.0 mph30.6 kmh 30.29 in1025.7 mb 0.00 in0.0 mm 0.00 in0.0 mm 0.13 in3.3 mm
08:00 AM 31.6°F-0.2°C 29.3°F-1.5°C 91% 7.0 mph NE11.3 kmh NE 19.0 mph30.6 kmh 30.30 in1026.1 mb 0.00 in0.0 mm 0.00 in0.0 mm 0.13 in3.3 mm
08:05 AM 31.6°F-0.2°C 29.3°F-1.5°C 91% 6.0 mph NE9.7 kmh NE 17.0 mph27.4 kmh 30.31 in1026.4 mb 0.00 in0.0 mm 0.00 in0.0 mm 0.13 in3.3 mm
08:10 AM 31.6°F-0.2°C 29.3°F-1.5°C 91% 7.0 mph NE11.3 kmh NE 20.0 mph32.2 kmh 30.31 in1026.4 mb 0.00 in0.0 mm 0.00 in0.0 mm 0.13 in3.3 mm
08:15 AM 31.5°F-0.3°C 29.1°F-1.6°C 91% 8.0 mph NE12.9 kmh NE 20.0 mph32.2 kmh 30.32 in1026.8 mb 0.00 in0.0 mm 0.00 in0.0 mm 0.13 in3.3 mm
08:20 AM 31.3°F-0.4°C 28.6°F-1.9°C 90% 9.0 mph NE14.5 kmh NE 19.0 mph30.6 kmh 30.32 in1026.8 mb 0.00 in0.0 mm 0.00 in0.0 mm 0.13 in3.3 mm
08:25 AM 31.3°F-0.4°C 28.6°F-1.9°C 90% 7.0 mph NE11.3 kmh NE 15.0 mph24.1 kmh 30.32 in1026.8 mb 0.00 in0.0 mm 0.00 in0.0 mm 0.13 in3.3 mm
08:30 AM 31.3°F-0.4°C 28.6°F-1.9°C 90% 6.0 mph NE9.7 kmh NE 17.0 mph27.4 kmh 30.34 in1027.4 mb 0.00 in0.0 mm 0.00 in0.0 mm 0.13 in3.3 mm
08:35 AM 31.3°F-0.4°C 28.4°F-2.0°C 89% 6.0 mph NE9.7 kmh NE 17.0 mph27.4 kmh 30.34 in1027.4 mb 0.00 in0.0 mm 0.00 in0.0 mm 0.13 in3.3 mm
08:40 AM 31.3°F-0.4°C 28.0°F-2.2°C 88% 6.0 mph NE9.7 kmh NE 16.0 mph25.7 kmh 30.35 in1027.8 mb 0.00 in0.0 mm 0.00 in0.0 mm 0.13 in3.3 mm
08:45 AM 31.3°F-0.4°C 28.0°F-2.2°C 88% 7.0 mph NE11.3 kmh NE 14.0 mph22.5 kmh 30.35 in1027.8 mb 0.00 in0.0 mm 0.00 in0.0 mm 0.13 in3.3 mm
08:50 AM 30.9°F-0.6°C 27.9°F-2.3°C 88% 8.0 mph NE12.9 kmh NE 16.0 mph25.7 kmh 30.36 in1028.1 mb 0.00 in0.0 mm 0.00 in0.0 mm 0.13 in3.3 mm
08:55 AM 30.9°F-0.6°C 28.0°F-2.2°C 89% 8.0 mph NE12.9 kmh NE 18.0 mph29.0 kmh 30.36 in1028.1 mb 0.00 in0.0 mm 0.00 in0.0 mm 0.13 in3.3 mm
09:00 AM 30.7°F-0.7°C 27.9°F-2.3°C 89% 7.0 mph NE11.3 kmh NE 18.0 mph29.0 kmh 30.37 in1028.4 mb 0.00 in0.0 mm 0.00 in0.0 mm 0.13 in3.3 mm
09:05 AM 30.7°F-0.7°C 28.2°F-2.1°C 90% 5.0 mph NE8.0 kmh NE 14.0 mph22.5 kmh 30.37 in1028.4 mb 0.00 in0.0 mm 0.00 in0.0 mm 0.13 in3.3 mm
09:10 AM 30.6°F-0.8°C 27.9°F-2.3°C 90% 6.0 mph NE9.7 kmh NE 16.0 mph25.7 kmh 30.38 in1028.8 mb 0.00 in0.0 mm 0.00 in0.0 mm 0.13 in3.3 mm
09:15 AM 30.2°F-1.0°C 27.7°F-2.4°C 90% 7.0 mph NE11.3 kmh NE 19.0 mph30.6 kmh 30.38 in1028.8 mb 0.00 in0.0 mm 0.00 in0.0 mm 0.13 in3.3 mm
09:20 AM 30.0°F-1.1°C 27.5°F-2.5°C 90% 7.0 mph NE11.3 kmh NE 19.0 mph30.6 kmh 30.39 in1029.1 mb 0.00 in0.0 mm 0.00 in0.0 mm 0.13 in3.3 mm
09:25 AM 30.0°F-1.1°C 27.5°F-2.5°C 90% 6.0 mph NE9.7 kmh NE 18.0 mph29.0 kmh 30.39 in1029.1 mb 0.00 in0.0 mm 0.00 in0.0 mm 0.13 in3.3 mm
09:30 AM 29.8°F-1.2°C 27.1°F-2.7°C 89% 6.0 mph NE9.7 kmh NE 16.0 mph25.7 kmh 30.40 in1029.5 mb 0.00 in0.0 mm 0.00 in0.0 mm 0.13 in3.3 mm
09:35 AM 29.7°F-1.3°C 26.8°F-2.9°C 89% 7.0 mph NE11.3 kmh NE 15.0 mph24.1 kmh 30.40 in1029.5 mb 0.00 in0.0 mm 0.00 in0.0 mm 0.13 in3.3 mm
09:40 AM 29.5°F-1.4°C 26.4°F-3.1°C 88% 7.0 mph NE11.3 kmh NE 15.0 mph24.1 kmh 30.40 in1029.5 mb 0.00 in0.0 mm 0.00 in0.0 mm 0.13 in3.3 mm
09:45 AM 29.5°F-1.4°C 26.1°F-3.3°C 87% 7.0 mph NE11.3 kmh NE 19.0 mph30.6 kmh 30.41 in1029.8 mb 0.00 in0.0 mm 0.00 in0.0 mm 0.13 in3.3 mm
09:50 AM 29.5°F-1.4°C 25.7°F-3.5°C 86% 8.0 mph NE12.9 kmh NE 19.0 mph30.6 kmh 30.41 in1029.8 mb 0.00 in0.0 mm 0.00 in0.0 mm 0.13 in3.3 mm
09:55 AM 29.7°F-1.3°C 25.9°F-3.4°C 86% 7.0 mph NE11.3 kmh NE 15.0 mph24.1 kmh 30.42 in1030.1 mb 0.00 in0.0 mm 0.00 in0.0 mm 0.13 in3.3 mm
10:00 AM 29.7°F-1.3°C 25.7°F-3.5°C 85% 5.0 mph NE8.0 kmh NE 15.0 mph24.1 kmh 30.42 in1030.1 mb 0.00 in0.0 mm 0.00 in0.0 mm 0.13 in3.3 mm
10:05 AM 30.0°F-1.1°C 25.5°F-3.6°C 83% 5.0 mph NE8.0 kmh NE 15.0 mph24.1 kmh 30.43 in1030.5 mb 0.00 in0.0 mm 0.00 in0.0 mm 0.13 in3.3 mm
10:10 AM 29.8°F-1.2°C 24.8°F-4.0°C 81% 6.0 mph NE9.7 kmh NE 15.0 mph24.1 kmh 30.43 in1030.5 mb 0.00 in0.0 mm 0.00 in0.0 mm 0.13 in3.3 mm
10:15 AM 30.0°F-1.1°C 24.6°F-4.1°C 80% 7.0 mph NE11.3 kmh NE 18.0 mph29.0 kmh 30.43 in1030.5 mb 0.00 in0.0 mm 0.00 in0.0 mm 0.13 in3.3 mm
10:20 AM 30.0°F-1.1°C 24.3°F-4.3°C 79% 6.0 mph NE9.7 kmh NE 18.0 mph29.0 kmh 30.43 in1030.5 mb 0.00 in0.0 mm 0.00 in0.0 mm 0.13 in3.3 mm
10:25 AM 29.8°F-1.2°C 23.5°F-4.7°C 77% 7.0 mph NE11.3 kmh NE 15.0 mph24.1 kmh 30.44 in1030.8 mb 0.00 in0.0 mm 0.00 in0.0 mm 0.13 in3.3 mm
10:30 AM 30.0°F-1.1°C 23.0°F-5.0°C 75% 9.0 mph NE14.5 kmh NE 19.0 mph30.6 kmh 30.44 in1030.8 mb 0.00 in0.0 mm 0.00 in0.0 mm 0.13 in3.3 mm
10:35 AM 30.2°F-1.0°C 23.2°F-4.9°C 75% 9.0 mph NE14.5 kmh NE 20.0 mph32.2 kmh 30.44 in1030.8 mb 0.00 in0.0 mm 0.00 in0.0 mm 0.13 in3.3 mm
10:40 AM 30.7°F-0.7°C 23.7°F-4.6°C 75% 8.0 mph NE12.9 kmh NE 20.0 mph32.2 kmh 30.44 in1030.8 mb 0.00 in0.0 mm 0.00 in0.0 mm 0.13 in3.3 mm
10:45 AM 30.9°F-0.6°C 23.7°F-4.6°C 74% 7.0 mph NE11.3 kmh NE 17.0 mph27.4 kmh 30.45 in1031.2 mb 0.00 in0.0 mm 0.00 in0.0 mm 0.13 in3.3 mm
10:50 AM 30.9°F-0.6°C 23.4°F-4.8°C 73% 8.0 mph NE12.9 kmh NE 16.0 mph25.7 kmh 30.45 in1031.2 mb 0.00 in0.0 mm 0.00 in0.0 mm 0.13 in3.3 mm
10:55 AM 30.9°F-0.6°C 22.6°F-5.2°C 71% 9.0 mph NE14.5 kmh NE 19.0 mph30.6 kmh 30.45 in1031.2 mb 0.00 in0.0 mm 0.00 in0.0 mm 0.13 in3.3 mm
11:00 AM 30.7°F-0.7°C 22.5°F-5.3°C 71% 10.0 mph NE16.1 kmh NE 20.0 mph32.2 kmh 30.46 in1031.5 mb 0.00 in0.0 mm 0.00 in0.0 mm 0.13 in3.3 mm
11:05 AM 30.9°F-0.6°C 22.6°F-5.2°C 71% 10.0 mph NE16.1 kmh NE 20.0 mph32.2 kmh 30.46 in1031.5 mb 0.00 in0.0 mm 0.00 in0.0 mm 0.13 in3.3 mm
11:10 AM 31.5°F-0.3°C 23.4°F-4.8°C 72% 8.0 mph NE12.9 kmh NE 18.0 mph29.0 kmh 30.46 in1031.5 mb 0.00 in0.0 mm 0.00 in0.0 mm 0.13 in3.3 mm
11:15 AM 31.6°F-0.2°C 23.5°F-4.7°C 72% 8.0 mph NE12.9 kmh NE 18.0 mph29.0 kmh 30.47 in1031.8 mb 0.00 in0.0 mm 0.00 in0.0 mm 0.13 in3.3 mm
11:20 AM 31.8°F-0.1°C 24.1°F-4.4°C 73% 8.0 mph NE12.9 kmh NE 17.0 mph27.4 kmh 30.47 in1031.8 mb 0.00 in0.0 mm 0.00 in0.0 mm 0.13 in3.3 mm
11:25 AM 32.0°F0.0°C 24.1°F-4.4°C 72% 8.0 mph NE12.9 kmh NE 16.0 mph25.7 kmh 30.47 in1031.8 mb 0.00 in0.0 mm 0.00 in0.0 mm 0.13 in3.3 mm
11:30 AM 31.5°F-0.3°C 22.8°F-5.1°C 70% 7.0 mph NNE11.3 kmh NNE 16.0 mph25.7 kmh 30.48 in1032.2 mb 0.00 in0.0 mm 0.00 in0.0 mm 0.13 in3.3 mm
11:35 AM 30.7°F-0.7°C 22.1°F-5.5°C 70% 7.0 mph NE11.3 kmh NE 16.0 mph25.7 kmh 30.48 in1032.2 mb 0.00 in0.0 mm 0.00 in0.0 mm 0.13 in3.3 mm
11:40 AM 30.9°F-0.6°C 22.3°F-5.4°C 70% 8.0 mph NE12.9 kmh NE 19.0 mph30.6 kmh 30.48 in1032.2 mb 0.00 in0.0 mm 0.00 in0.0 mm 0.13 in3.3 mm
11:45 AM 31.5°F-0.3°C 22.5°F-5.3°C 69% 8.0 mph NE12.9 kmh NE 19.0 mph30.6 kmh 30.48 in1032.2 mb 0.00 in0.0 mm 0.00 in0.0 mm 0.13 in3.3 mm
11:50 AM 31.6°F-0.2°C 23.0°F-5.0°C 70% 7.0 mph NE11.3 kmh NE 18.0 mph29.0 kmh 30.48 in1032.2 mb 0.00 in0.0 mm 0.00 in0.0 mm 0.13 in3.3 mm
11:55 AM 31.8°F-0.1°C 23.2°F-4.9°C 70% 8.0 mph NE12.9 kmh NE 18.0 mph29.0 kmh 30.49 in1032.5 mb 0.00 in0.0 mm 0.00 in0.0 mm 0.13 in3.3 mm
12:00 PM 31.6°F-0.2°C 22.6°F-5.2°C 69% 8.0 mph NE12.9 kmh NE 18.0 mph29.0 kmh 30.49 in1032.5 mb 0.00 in0.0 mm 0.00 in0.0 mm 0.13 in3.3 mm
12:05 PM 31.3°F-0.4°C 20.8°F-6.2°C 65% 9.0 mph NE14.5 kmh NE 18.0 mph29.0 kmh 30.49 in1032.5 mb 0.00 in0.0 mm 0.00 in0.0 mm 0.13 in3.3 mm
12:10 PM 31.3°F-0.4°C 20.5°F-6.4°C 64% 9.0 mph NE14.5 kmh NE 18.0 mph29.0 kmh 30.49 in1032.5 mb 0.00 in0.0 mm 0.00 in0.0 mm 0.13 in3.3 mm
12:15 PM 31.5°F-0.3°C 21.0°F-6.1°C 65% 7.0 mph NE11.3 kmh NE 16.0 mph25.7 kmh 30.49 in1032.5 mb 0.00 in0.0 mm 0.00 in0.0 mm 0.13 in3.3 mm
12:20 PM 31.8°F-0.1°C 21.4°F-5.9°C 65% 7.0 mph NE11.3 kmh NE 13.0 mph20.9 kmh 30.49 in1032.5 mb 0.00 in0.0 mm 0.00 in0.0 mm 0.13 in3.3 mm
12:25 PM 32.0°F0.0°C 22.3°F-5.4°C 67% 7.0 mph NE11.3 kmh NE 16.0 mph25.7 kmh 30.50 in1032.8 mb 0.00 in0.0 mm 0.00 in0.0 mm 0.13 in3.3 mm
12:30 PM 31.6°F-0.2°C 21.9°F-5.6°C 67% 8.0 mph NE12.9 kmh NE 16.0 mph25.7 kmh 30.50 in1032.8 mb 0.00 in0.0 mm 0.00 in0.0 mm 0.13 in3.3 mm
12:35 PM 31.6°F-0.2°C 21.6°F-5.8°C 66% 8.0 mph NE12.9 kmh NE 16.0 mph25.7 kmh 30.50 in1032.8 mb 0.00 in0.0 mm 0.00 in0.0 mm 0.13 in3.3 mm
12:40 PM 31.8°F-0.1°C 21.0°F-6.1°C 64% 8.0 mph NE12.9 kmh NE 15.0 mph24.1 kmh 30.50 in1032.8 mb 0.00 in0.0 mm 0.00 in0.0 mm 0.13 in3.3 mm
12:45 PM 31.8°F-0.1°C 20.3°F-6.5°C 62% 7.0 mph NE11.3 kmh NE 15.0 mph24.1 kmh 30.50 in1032.8 mb 0.00 in0.0 mm 0.00 in0.0 mm 0.13 in3.3 mm
12:50 PM 32.0°F0.0°C 20.5°F-6.4°C 62% 8.0 mph NE12.9 kmh NE 16.0 mph25.7 kmh 30.50 in1032.8 mb 0.00 in0.0 mm 0.00 in0.0 mm 0.13 in3.3 mm
12:55 PM 32.4°F0.2°C 21.0°F-6.1°C 63% 7.0 mph NE11.3 kmh NE 16.0 mph25.7 kmh 30.50 in1032.8 mb 0.00 in0.0 mm 0.00 in0.0 mm 0.13 in3.3 mm
01:00 PM 32.2°F0.1°C 20.5°F-6.4°C 62% 7.0 mph NE11.3 kmh NE 17.0 mph27.4 kmh 30.51 in1033.2 mb 0.00 in0.0 mm 0.00 in0.0 mm 0.13 in3.3 mm
01:05 PM 32.4°F0.2°C 21.6°F-5.8°C 64% 7.0 mph NE11.3 kmh NE 17.0 mph27.4 kmh 30.51 in1033.2 mb 0.00 in0.0 mm 0.00 in0.0 mm 0.13 in3.3 mm
01:10 PM 32.5°F0.3°C 21.7°F-5.7°C 64% 6.0 mph N9.7 kmh N 15.0 mph24.1 kmh 30.51 in1033.2 mb 0.00 in0.0 mm 0.00 in0.0 mm 0.13 in3.3 mm
01:15 PM 32.4°F0.2°C 21.0°F-6.1°C 63% 6.0 mph NNE9.7 kmh NNE 15.0 mph24.1 kmh 30.51 in1033.2 mb 0.00 in0.0 mm 0.00 in0.0 mm 0.13 in3.3 mm
01:20 PM 31.8°F-0.1°C 20.7°F-6.3°C 63% 6.0 mph NE9.7 kmh NE 15.0 mph24.1 kmh 30.52 in1033.5 mb 0.00 in0.0 mm 0.00 in0.0 mm 0.13 in3.3 mm
01:25 PM 32.0°F0.0°C 20.8°F-6.2°C 63% 7.0 mph NE11.3 kmh NE 15.0 mph24.1 kmh 30.52 in1033.5 mb 0.00 in0.0 mm 0.00 in0.0 mm 0.13 in3.3 mm
01:30 PM 32.4°F0.2°C 21.0°F-6.1°C 63% 6.0 mph NE9.7 kmh NE 14.0 mph22.5 kmh 30.52 in1033.5 mb 0.00 in0.0 mm 0.00 in0.0 mm 0.13 in3.3 mm
01:35 PM 32.4°F0.2°C 20.8°F-6.2°C 62% 5.0 mph NE8.0 kmh NE 13.0 mph20.9 kmh 30.52 in1033.5 mb 0.00 in0.0 mm 0.00 in0.0 mm 0.13 in3.3 mm
01:40 PM 32.2°F0.1°C 19.9°F-6.7°C 60% 6.0 mph NE9.7 kmh NE 17.0 mph27.4 kmh 30.52 in1033.5 mb 0.00 in0.0 mm 0.00 in0.0 mm 0.13 in3.3 mm
01:45 PM 32.4°F0.2°C 19.9°F-6.7°C 60% 6.0 mph NE9.7 kmh NE 17.0 mph27.4 kmh 30.52 in1033.5 mb 0.00 in0.0 mm 0.00 in0.0 mm 0.13 in3.3 mm
01:50 PM 32.4°F0.2°C 19.2°F-7.1°C 58% 6.0 mph NE9.7 kmh NE 16.0 mph25.7 kmh 30.53 in1033.9 mb 0.00 in0.0 mm 0.00 in0.0 mm 0.13 in3.3 mm
01:55 PM 32.4°F0.2°C 19.6°F-6.9°C 59% 7.0 mph NE11.3 kmh NE 14.0 mph22.5 kmh 30.53 in1033.9 mb 0.00 in0.0 mm 0.00 in0.0 mm 0.13 in3.3 mm
02:00 PM 32.5°F0.3°C 19.4°F-7.0°C 58% 6.0 mph NE9.7 kmh NE 14.0 mph22.5 kmh 30.53 in1033.9 mb 0.00 in0.0 mm 0.00 in0.0 mm 0.13 in3.3 mm
02:05 PM 32.4°F0.2°C 19.2°F-7.1°C 58% 5.0 mph NE8.0 kmh NE 19.0 mph30.6 kmh 30.54 in1034.2 mb 0.00 in0.0 mm 0.00 in0.0 mm 0.13 in3.3 mm
02:10 PM 32.4°F0.2°C 19.2°F-7.1°C 58% 5.0 mph NNE8.0 kmh NNE 19.0 mph30.6 kmh 30.54 in1034.2 mb 0.00 in0.0 mm 0.00 in0.0 mm 0.13 in3.3 mm
02:15 PM 31.8°F-0.1°C 18.3°F-7.6°C 57% 7.0 mph NNE11.3 kmh NNE 18.0 mph29.0 kmh 30.54 in1034.2 mb 0.00 in0.0 mm 0.00 in0.0 mm 0.13 in3.3 mm
02:20 PM 32.2°F0.1°C 18.5°F-7.5°C 57% 8.0 mph NNE12.9 kmh NNE 18.0 mph29.0 kmh 30.54 in1034.2 mb 0.00 in0.0 mm 0.00 in0.0 mm 0.13 in3.3 mm
02:25 PM 32.4°F0.2°C 18.5°F-7.5°C 56% 6.0 mph NE9.7 kmh NE 14.0 mph22.5 kmh 30.54 in1034.2 mb 0.00 in0.0 mm 0.00 in0.0 mm 0.13 in3.3 mm
02:30 PM 32.4°F0.2°C 17.4°F-8.1°C 54% 5.0 mph NE8.0 kmh NE 14.0 mph22.5 kmh 30.54 in1034.2 mb 0.00 in0.0 mm 0.00 in0.0 mm 0.13 in3.3 mm
02:35 PM 32.2°F0.1°C 17.4°F-8.1°C 54% 6.0 mph NE9.7 kmh NE 14.0 mph22.5 kmh 30.55 in1034.5 mb 0.00 in0.0 mm 0.00 in0.0 mm 0.13 in3.3 mm
02:40 PM 32.0°F0.0°C 17.2°F-8.2°C 54% 6.0 mph NE9.7 kmh NE 14.0 mph22.5 kmh 30.55 in1034.5 mb 0.00 in0.0 mm 0.00 in0.0 mm 0.13 in3.3 mm
02:45 PM 31.8°F-0.1°C 16.5°F-8.6°C 53% 7.0 mph NE11.3 kmh NE 19.0 mph30.6 kmh 30.55 in1034.5 mb 0.00 in0.0 mm 0.00 in0.0 mm 0.13 in3.3 mm
02:50 PM 31.8°F-0.1°C 16.7°F-8.5°C 53% 7.0 mph NE11.3 kmh NE 19.0 mph30.6 kmh 30.55 in1034.5 mb 0.00 in0.0 mm 0.00 in0.0 mm 0.13 in3.3 mm
02:55 PM 31.6°F-0.2°C 15.4°F-9.2°C 51% 7.0 mph NE11.3 kmh NE 17.0 mph27.4 kmh 30.55 in1034.5 mb 0.00 in0.0 mm 0.00 in0.0 mm 0.13 in3.3 mm
03:00 PM 31.5°F-0.3°C 14.5°F-9.7°C 49% 7.0 mph NE11.3 kmh NE 16.0 mph25.7 kmh 30.55 in1034.5 mb 0.00 in0.0 mm 0.00 in0.0 mm 0.13 in3.3 mm
03:05 PM 31.5°F-0.3°C 14.9°F-9.5°C 50% 8.0 mph NE12.9 kmh NE 16.0 mph25.7 kmh 30.55 in1034.5 mb 0.00 in0.0 mm 0.00 in0.0 mm 0.13 in3.3 mm
03:10 PM 31.6°F-0.2°C 15.6°F-9.1°C 51% 6.0 mph NE9.7 kmh NE 15.0 mph24.1 kmh 30.55 in1034.5 mb 0.00 in0.0 mm 0.00 in0.0 mm 0.13 in3.3 mm
03:15 PM 31.8°F-0.1°C 16.2°F-8.8°C 52% 5.0 mph NE8.0 kmh NE 16.0 mph25.7 kmh 30.56 in1034.9 mb 0.00 in0.0 mm 0.00 in0.0 mm 0.13 in3.3 mm
03:20 PM 31.6°F-0.2°C 15.6°F-9.1°C 51% 5.0 mph NE8.0 kmh NE 16.0 mph25.7 kmh 30.56 in1034.9 mb 0.00 in0.0 mm 0.00 in0.0 mm 0.13 in3.3 mm
03:25 PM 31.3°F-0.4°C 15.6°F-9.1°C 52% 7.0 mph NE11.3 kmh NE 16.0 mph25.7 kmh 30.57 in1035.2 mb 0.00 in0.0 mm 0.00 in0.0 mm 0.13 in3.3 mm
03:30 PM 31.3°F-0.4°C 15.1°F-9.4°C 51% 7.0 mph NE11.3 kmh NE 16.0 mph25.7 kmh 30.57 in1035.2 mb 0.00 in0.0 mm 0.00 in0.0 mm 0.13 in3.3 mm
03:35 PM 31.1°F-0.5°C 14.5°F-9.7°C 50% 7.0 mph NE11.3 kmh NE 18.0 mph29.0 kmh 30.57 in1035.2 mb 0.00 in0.0 mm 0.00 in0.0 mm 0.13 in3.3 mm
03:40 PM 31.1°F-0.5°C 15.1°F-9.4°C 51% 6.0 mph NE9.7 kmh NE 18.0 mph29.0 kmh 30.57 in1035.2 mb 0.00 in0.0 mm 0.00 in0.0 mm 0.13 in3.3 mm
03:45 PM 30.9°F-0.6°C 14.0°F-10.0°C 49% 6.0 mph NE9.7 kmh NE 15.0 mph24.1 kmh 30.57 in1035.2 mb 0.00 in0.0 mm 0.00 in0.0 mm 0.13 in3.3 mm
03:50 PM 30.7°F-0.7°C 14.4°F-9.8°C 50% 7.0 mph NNE11.3 kmh NNE 16.0 mph25.7 kmh 30.58 in1035.6 mb 0.00 in0.0 mm 0.00 in0.0 mm 0.13 in3.3 mm
03:55 PM 30.9°F-0.6°C 14.9°F-9.5°C 51% 6.0 mph NE9.7 kmh NE 16.0 mph25.7 kmh 30.58 in1035.6 mb 0.00 in0.0 mm 0.00 in0.0 mm 0.13 in3.3 mm
04:00 PM 30.7°F-0.7°C 14.7°F-9.6°C 51% 5.0 mph NE8.0 kmh NE 15.0 mph24.1 kmh 30.58 in1035.6 mb 0.00 in0.0 mm 0.00 in0.0 mm 0.13 in3.3 mm
04:05 PM 30.6°F-0.8°C 13.6°F-10.2°C 49% 7.0 mph NE11.3 kmh NE 19.0 mph30.6 kmh 30.59 in1035.9 mb 0.00 in0.0 mm 0.00 in0.0 mm 0.13 in3.3 mm
04:10 PM 30.4°F-0.9°C 12.9°F-10.6°C 48% 7.0 mph NNE11.3 kmh NNE 19.0 mph30.6 kmh 30.59 in1035.9 mb 0.00 in0.0 mm 0.00 in0.0 mm 0.13 in3.3 mm
04:15 PM 30.4°F-0.9°C 13.5°F-10.3°C 49% 6.0 mph NE9.7 kmh NE 14.0 mph22.5 kmh 30.59 in1035.9 mb 0.00 in0.0 mm 0.00 in0.0 mm 0.13 in3.3 mm
04:20 PM 30.4°F-0.9°C 13.8°F-10.1°C 50% 4.0 mph NE6.4 kmh NE 11.0 mph17.7 kmh 30.59 in1035.9 mb 0.00 in0.0 mm 0.00 in0.0 mm 0.13 in3.3 mm
04:25 PM 30.0°F-1.1°C 12.7°F-10.7°C 48% 5.0 mph NE8.0 kmh NE 18.0 mph29.0 kmh 30.60 in1036.2 mb 0.00 in0.0 mm 0.00 in0.0 mm 0.13 in3.3 mm
04:30 PM 29.8°F-1.2°C 12.6°F-10.8°C 48% 6.0 mph NE9.7 kmh NE 18.0 mph29.0 kmh 30.60 in1036.2 mb 0.00 in0.0 mm 0.00 in0.0 mm 0.13 in3.3 mm
04:35 PM 29.7°F-1.3°C 12.4°F-10.9°C 48% 6.0 mph NE9.7 kmh NE 17.0 mph27.4 kmh 30.60 in1036.2 mb 0.00 in0.0 mm 0.00 in0.0 mm 0.13 in3.3 mm
04:40 PM 29.7°F-1.3°C 12.9°F-10.6°C 49% 6.0 mph NE9.7 kmh NE 17.0 mph27.4 kmh 30.61 in1036.6 mb 0.00 in0.0 mm 0.00 in0.0 mm 0.13 in3.3 mm
04:45 PM 29.5°F-1.4°C 12.2°F-11.0°C 48% 6.0 mph NNE9.7 kmh NNE 15.0 mph24.1 kmh 30.61 in1036.6 mb 0.00 in0.0 mm 0.00 in0.0 mm 0.13 in3.3 mm
04:50 PM 29.3°F-1.5°C 11.5°F-11.4°C 47% 6.0 mph NNE9.7 kmh NNE 15.0 mph24.1 kmh 30.61 in1036.6 mb 0.00 in0.0 mm 0.00 in0.0 mm 0.13 in3.3 mm
04:55 PM 28.9°F-1.7°C 11.3°F-11.5°C 47% 5.0 mph NE8.0 kmh NE 10.0 mph16.1 kmh 30.61 in1036.6 mb 0.00 in0.0 mm 0.00 in0.0 mm 0.13 in3.3 mm
05:00 PM 28.8°F-1.8°C 11.5°F-11.4°C 48% 5.0 mph NE8.0 kmh NE 13.0 mph20.9 kmh 30.62 in1036.9 mb 0.00 in0.0 mm 0.00 in0.0 mm 0.13 in3.3 mm
05:05 PM 28.6°F-1.9°C 11.8°F-11.2°C 49% 4.0 mph NE6.4 kmh NE 13.0 mph20.9 kmh 30.62 in1036.9 mb 0.00 in0.0 mm 0.00 in0.0 mm 0.13 in3.3 mm
05:10 PM 28.4°F-2.0°C 12.0°F-11.1°C 50% 4.0 mph NE6.4 kmh NE 10.0 mph16.1 kmh 30.63 in1037.3 mb 0.00 in0.0 mm 0.00 in0.0 mm 0.13 in3.3 mm
05:15 PM 28.2°F-2.1°C 12.0°F-11.1°C 50% 3.0 mph NE4.8 kmh NE 10.0 mph16.1 kmh 30.63 in1037.3 mb 0.00 in0.0 mm 0.00 in0.0 mm 0.13 in3.3 mm
05:20 PM 28.0°F-2.2°C 12.2°F-11.0°C 51% 3.0 mph NE4.8 kmh NE 13.0 mph20.9 kmh 30.63 in1037.3 mb 0.00 in0.0 mm 0.00 in0.0 mm 0.13 in3.3 mm
05:25 PM 28.0°F-2.2°C 12.6°F-10.8°C 52% 4.0 mph NNE6.4 kmh NNE 13.0 mph20.9 kmh 30.64 in1037.6 mb 0.00 in0.0 mm 0.00 in0.0 mm 0.13 in3.3 mm
05:30 PM 27.9°F-2.3°C 12.9°F-10.6°C 53% 5.0 mph NNE8.0 kmh NNE 10.0 mph16.1 kmh 30.64 in1037.6 mb 0.00 in0.0 mm 0.00 in0.0 mm 0.13 in3.3 mm
05:35 PM 27.7°F-2.4°C 13.3°F-10.4°C 54% 5.0 mph NNE8.0 kmh NNE 11.0 mph17.7 kmh 30.64 in1037.6 mb 0.00 in0.0 mm 0.00 in0.0 mm 0.13 in3.3 mm
05:40 PM 27.7°F-2.4°C 13.1°F-10.5°C 54% 5.0 mph NNE8.0 kmh NNE 13.0 mph20.9 kmh 30.64 in1037.6 mb 0.00 in0.0 mm 0.00 in0.0 mm 0.13 in3.3 mm
05:45 PM 27.5°F-2.5°C 13.1°F-10.5°C 54% 4.0 mph NNE6.4 kmh NNE 13.0 mph20.9 kmh 30.65 in1037.9 mb 0.00 in0.0 mm 0.00 in0.0 mm 0.13 in3.3 mm
05:50 PM 27.3°F-2.6°C 12.9°F-10.6°C 54% 4.0 mph NE6.4 kmh NE 10.0 mph16.1 kmh 30.65 in1037.9 mb 0.00 in0.0 mm 0.00 in0.0 mm 0.13 in3.3 mm
05:55 PM 27.3°F-2.6°C 12.7°F-10.7°C 54% 4.0 mph NE6.4 kmh NE 11.0 mph17.7 kmh 30.65 in1037.9 mb 0.00 in0.0 mm 0.00 in0.0 mm 0.13 in3.3 mm
06:00 PM 27.1°F-2.7°C 12.6°F-10.8°C 54% 3.0 mph NNE4.8 kmh NNE 11.0 mph17.7 kmh 30.66 in1038.3 mb 0.00 in0.0 mm 0.00 in0.0 mm 0.13 in3.3 mm
06:05 PM 27.1°F-2.7°C 12.6°F-10.8°C 54% 3.0 mph NNE4.8 kmh NNE 10.0 mph16.1 kmh 30.66 in1038.3 mb 0.00 in0.0 mm 0.00 in0.0 mm 0.13 in3.3 mm
06:10 PM 27.0°F-2.8°C 12.6°F-10.8°C 54% 4.0 mph NNE6.4 kmh NNE 12.0 mph19.3 kmh 30.66 in1038.3 mb 0.00 in0.0 mm 0.00 in0.0 mm 0.13 in3.3 mm
06:15 PM 27.0°F-2.8°C 12.4°F-10.9°C 54% 4.0 mph NNE6.4 kmh NNE 12.0 mph19.3 kmh 30.66 in1038.3 mb 0.00 in0.0 mm 0.00 in0.0 mm 0.13 in3.3 mm
06:20 PM 27.0°F-2.8°C 12.4°F-10.9°C 54% 3.0 mph NNE4.8 kmh NNE 9.0 mph14.5 kmh 30.66 in1038.3 mb 0.00 in0.0 mm 0.00 in0.0 mm 0.13 in3.3 mm
06:25 PM 26.8°F-2.9°C 12.2°F-11.0°C 54% 3.0 mph NNE4.8 kmh NNE 9.0 mph14.5 kmh 30.67 in1038.6 mb 0.00 in0.0 mm 0.00 in0.0 mm 0.13 in3.3 mm
06:30 PM 26.4°F-3.1°C 12.0°F-11.1°C 54% 3.0 mph NNE4.8 kmh NNE 9.0 mph14.5 kmh 30.67 in1038.6 mb 0.00 in0.0 mm 0.00 in0.0 mm 0.13 in3.3 mm
06:35 PM 26.2°F-3.2°C 12.7°F-10.7°C 56% 3.0 mph N4.8 kmh N 9.0 mph14.5 kmh 30.67 in1038.6 mb 0.00 in0.0 mm 0.00 in0.0 mm 0.13 in3.3 mm
06:40 PM 26.2°F-3.2°C 13.5°F-10.3°C 58% 2.0 mph NNE3.2 kmh NNE 8.0 mph12.9 kmh 30.67 in1038.6 mb 0.00 in0.0 mm 0.00 in0.0 mm 0.13 in3.3 mm
06:45 PM 26.2°F-3.2°C 13.8°F-10.1°C 59% 3.0 mph NNE4.8 kmh NNE 11.0 mph17.7 kmh 30.67 in1038.6 mb 0.00 in0.0 mm 0.00 in0.0 mm 0.13 in3.3 mm
06:50 PM 26.2°F-3.2°C 13.8°F-10.1°C 59% 4.0 mph NNE6.4 kmh NNE 11.0 mph17.7 kmh 30.68 in1038.9 mb 0.00 in0.0 mm 0.00 in0.0 mm 0.13 in3.3 mm
06:55 PM 26.1°F-3.3°C 14.2°F-9.9°C 60% 2.0 mph NNE3.2 kmh NNE 6.0 mph9.7 kmh 30.68 in1038.9 mb 0.00 in0.0 mm 0.00 in0.0 mm 0.13 in3.3 mm
07:00 PM 25.9°F-3.4°C 14.4°F-9.8°C 61% 2.0 mph NNE3.2 kmh NNE 8.0 mph12.9 kmh 30.68 in1038.9 mb 0.00 in0.0 mm 0.00 in0.0 mm 0.13 in3.3 mm
07:05 PM 25.9°F-3.4°C 14.5°F-9.7°C 62% 2.0 mph NNE3.2 kmh NNE 8.0 mph12.9 kmh 30.68 in1038.9 mb 0.00 in0.0 mm 0.00 in0.0 mm 0.13 in3.3 mm
07:10 PM 25.7°F-3.5°C 14.2°F-9.9°C 61% 3.0 mph NNE4.8 kmh NNE 12.0 mph19.3 kmh 30.68 in1038.9 mb 0.00 in0.0 mm 0.00 in0.0 mm 0.13 in3.3 mm
07:15 PM 25.5°F-3.6°C 14.0°F-10.0°C 61% 4.0 mph NNE6.4 kmh NNE 12.0 mph19.3 kmh 30.69 in1039.3 mb 0.00 in0.0 mm 0.00 in0.0 mm 0.13 in3.3 mm
07:20 PM 25.5°F-3.6°C 13.8°F-10.1°C 61% 3.0 mph NNE4.8 kmh NNE 9.0 mph14.5 kmh 30.69 in1039.3 mb 0.00 in0.0 mm 0.00 in0.0 mm 0.13 in3.3 mm
07:25 PM 25.3°F-3.7°C 13.8°F-10.1°C 61% 4.0 mph NNE6.4 kmh NNE 12.0 mph19.3 kmh 30.69 in1039.3 mb 0.00 in0.0 mm 0.00 in0.0 mm 0.13 in3.3 mm
07:30 PM 25.3°F-3.7°C 13.6°F-10.2°C 61% 3.0 mph NNE4.8 kmh NNE 12.0 mph19.3 kmh 30.69 in1039.3 mb 0.00 in0.0 mm 0.00 in0.0 mm 0.13 in3.3 mm
07:35 PM 25.2°F-3.8°C 13.8°F-10.1°C 62% 2.0 mph N3.2 kmh N 9.0 mph14.5 kmh 30.70 in1039.6 mb 0.00 in0.0 mm 0.00 in0.0 mm 0.13 in3.3 mm
07:40 PM 24.8°F-4.0°C 14.0°F-10.0°C 63% 2.0 mph N3.2 kmh N 9.0 mph14.5 kmh 30.70 in1039.6 mb 0.00 in0.0 mm 0.00 in0.0 mm 0.13 in3.3 mm
07:45 PM 24.6°F-4.1°C 14.2°F-9.9°C 64% 2.0 mph N3.2 kmh N 8.0 mph12.9 kmh 30.70 in1039.6 mb 0.00 in0.0 mm 0.00 in0.0 mm 0.13 in3.3 mm
07:50 PM 24.6°F-4.1°C 14.2°F-9.9°C 64% 3.0 mph N4.8 kmh N 11.0 mph17.7 kmh 30.71 in1040.0 mb 0.00 in0.0 mm 0.00 in0.0 mm 0.13 in3.3 mm
07:55 PM 24.6°F-4.1°C 14.2°F-9.9°C 64% 3.0 mph NNE4.8 kmh NNE 11.0 mph17.7 kmh 30.70 in1039.6 mb 0.00 in0.0 mm 0.00 in0.0 mm 0.13 in3.3 mm
08:00 PM 24.4°F-4.2°C 14.0°F-10.0°C 64% 2.0 mph NNE3.2 kmh NNE 6.0 mph9.7 kmh 30.71 in1040.0 mb 0.00 in0.0 mm 0.00 in0.0 mm 0.13 in3.3 mm
08:05 PM 24.3°F-4.3°C 14.2°F-9.9°C 65% 2.0 mph NNE3.2 kmh NNE 6.0 mph9.7 kmh 30.71 in1040.0 mb 0.00 in0.0 mm 0.00 in0.0 mm 0.13 in3.3 mm
08:10 PM 24.3°F-4.3°C 14.2°F-9.9°C 65% 2.0 mph N3.2 kmh N 6.0 mph9.7 kmh 30.71 in1040.0 mb 0.00 in0.0 mm 0.00 in0.0 mm 0.13 in3.3 mm
08:15 PM 24.3°F-4.3°C 13.8°F-10.1°C 64% 2.0 mph N3.2 kmh N 7.0 mph11.3 kmh 30.72 in1040.3 mb 0.00 in0.0 mm 0.00 in0.0 mm 0.13 in3.3 mm
08:20 PM 24.1°F-4.4°C 13.6°F-10.2°C 64% 2.0 mph NNE3.2 kmh NNE 7.0 mph11.3 kmh 30.72 in1040.3 mb 0.00 in0.0 mm 0.00 in0.0 mm 0.13 in3.3 mm
08:25 PM 24.1°F-4.4°C 14.0°F-10.0°C 65% 2.0 mph NNE3.2 kmh NNE 7.0 mph11.3 kmh 30.72 in1040.3 mb 0.00 in0.0 mm 0.00 in0.0 mm 0.13 in3.3 mm
08:30 PM 24.1°F-4.4°C 14.0°F-10.0°C 65% 2.0 mph NNE3.2 kmh NNE 9.0 mph14.5 kmh 30.73 in1040.6 mb 0.00 in0.0 mm 0.00 in0.0 mm 0.13 in3.3 mm
08:35 PM 24.1°F-4.4°C 14.0°F-10.0°C 65% 2.0 mph NE3.2 kmh NE 9.0 mph14.5 kmh 30.73 in1040.6 mb 0.00 in0.0 mm 0.00 in0.0 mm 0.13 in3.3 mm
08:40 PM 23.9°F-4.5°C 13.8°F-10.1°C 65% 3.0 mph NNE4.8 kmh NNE 10.0 mph16.1 kmh 30.73 in1040.6 mb 0.00 in0.0 mm 0.00 in0.0 mm 0.13 in3.3 mm
08:45 PM 23.9°F-4.5°C 13.8°F-10.1°C 65% 3.0 mph NNE4.8 kmh NNE 10.0 mph16.1 kmh 30.73 in1040.6 mb 0.00 in0.0 mm 0.00 in0.0 mm 0.13 in3.3 mm
08:50 PM 23.7°F-4.6°C 13.8°F-10.1°C 65% 4.0 mph NNE6.4 kmh NNE 13.0 mph20.9 kmh 30.73 in1040.6 mb 0.00 in0.0 mm 0.00 in0.0 mm 0.13 in3.3 mm
08:55 PM 23.7°F-4.6°C 13.8°F-10.1°C 65% 3.0 mph NNE4.8 kmh NNE 13.0 mph20.9 kmh 30.74 in1041.0 mb 0.00 in0.0 mm 0.00 in0.0 mm 0.13 in3.3 mm
09:00 PM 23.5°F-4.7°C 13.8°F-10.1°C 66% 2.0 mph NNE3.2 kmh NNE 6.0 mph9.7 kmh 30.74 in1041.0 mb 0.00 in0.0 mm 0.00 in0.0 mm 0.13 in3.3 mm
09:05 PM 23.5°F-4.7°C 13.8°F-10.1°C 66% 2.0 mph NNE3.2 kmh NNE 7.0 mph11.3 kmh 30.74 in1041.0 mb 0.00 in0.0 mm 0.00 in0.0 mm 0.13 in3.3 mm
09:10 PM 23.4°F-4.8°C 14.0°F-10.0°C 67% 3.0 mph N4.8 kmh N 8.0 mph12.9 kmh 30.75 in1041.3 mb 0.00 in0.0 mm 0.00 in0.0 mm 0.13 in3.3 mm
09:15 PM 23.4°F-4.8°C 14.4°F-9.8°C 68% 3.0 mph NNE4.8 kmh NNE 8.0 mph12.9 kmh 30.75 in1041.3 mb 0.00 in0.0 mm 0.00 in0.0 mm 0.13 in3.3 mm
09:20 PM 23.2°F-4.9°C 14.2°F-9.9°C 68% 2.0 mph NNE3.2 kmh NNE 5.0 mph8.0 kmh 30.76 in1041.7 mb 0.00 in0.0 mm 0.00 in0.0 mm 0.13 in3.3 mm
09:25 PM 22.8°F-5.1°C 14.2°F-9.9°C 69% 1.0 mph NNE1.6 kmh NNE 5.0 mph8.0 kmh 30.76 in1041.7 mb 0.00 in0.0 mm 0.00 in0.0 mm 0.13 in3.3 mm
09:30 PM 22.8°F-5.1°C 14.2°F-9.9°C 69% 1.0 mph N1.6 kmh N 5.0 mph8.0 kmh 30.77 in1042.0 mb 0.00 in0.0 mm 0.00 in0.0 mm 0.13 in3.3 mm
09:35 PM 22.6°F-5.2°C 14.0°F-10.0°C 69% 2.0 mph N3.2 kmh N 8.0 mph12.9 kmh 30.77 in1042.0 mb 0.00 in0.0 mm 0.00 in0.0 mm 0.13 in3.3 mm
09:40 PM 22.6°F-5.2°C 14.0°F-10.0°C 69% 2.0 mph N3.2 kmh N 8.0 mph12.9 kmh 30.77 in1042.0 mb 0.00 in0.0 mm 0.00 in0.0 mm 0.13 in3.3 mm
09:45 PM 22.5°F-5.3°C 14.2°F-9.9°C 70% 1.0 mph N1.6 kmh N 6.0 mph9.7 kmh 30.77 in1042.0 mb 0.00 in0.0 mm 0.00 in0.0 mm 0.13 in3.3 mm
09:50 PM 22.5°F-5.3°C 14.5°F-9.7°C 71% 1.0 mph N1.6 kmh N 4.0 mph6.4 kmh 30.78 in1042.3 mb 0.00 in0.0 mm 0.00 in0.0 mm 0.13 in3.3 mm
09:55 PM 22.5°F-5.3°C 14.4°F-9.8°C 71% 1.0 mph NNE1.6 kmh NNE 4.0 mph6.4 kmh 30.78 in1042.3 mb 0.00 in0.0 mm 0.00 in0.0 mm 0.13 in3.3 mm
10:00 PM 22.5°F-5.3°C 14.4°F-9.8°C 71% 1.0 mph NNE1.6 kmh NNE 5.0 mph8.0 kmh 30.78 in1042.3 mb 0.00 in0.0 mm 0.00 in0.0 mm 0.13 in3.3 mm
10:05 PM 22.5°F-5.3°C 14.2°F-9.9°C 70% 2.0 mph NNE3.2 kmh NNE 7.0 mph11.3 kmh 30.79 in1042.7 mb 0.00 in0.0 mm 0.00 in0.0 mm 0.13 in3.3 mm
10:10 PM 22.5°F-5.3°C 14.2°F-9.9°C 70% 2.0 mph NNE3.2 kmh NNE 7.0 mph11.3 kmh 30.78 in1042.3 mb 0.00 in0.0 mm 0.00 in0.0 mm 0.13 in3.3 mm
10:15 PM 22.5°F-5.3°C 14.2°F-9.9°C 70% 2.0 mph NNE3.2 kmh NNE 6.0 mph9.7 kmh 30.79 in1042.7 mb 0.00 in0.0 mm 0.00 in0.0 mm 0.13 in3.3 mm
10:20 PM 22.5°F-5.3°C 14.2°F-9.9°C 70% 1.0 mph NNE1.6 kmh NNE 5.0 mph8.0 kmh 30.79 in1042.7 mb 0.00 in0.0 mm 0.00 in0.0 mm 0.13 in3.3 mm
10:25 PM 22.5°F-5.3°C 14.4°F-9.8°C 71% 1.0 mph NE1.6 kmh NE 6.0 mph9.7 kmh 30.79 in1042.7 mb 0.00 in0.0 mm 0.00 in0.0 mm 0.13 in3.3 mm
10:30 PM 22.3°F-5.4°C 14.4°F-9.8°C 71% 1.0 mph NE1.6 kmh NE 7.0 mph11.3 kmh 30.79 in1042.7 mb 0.00 in0.0 mm 0.00 in0.0 mm 0.13 in3.3 mm
10:35 PM 22.3°F-5.4°C 14.2°F-9.9°C 71% 2.0 mph NNE3.2 kmh NNE 7.0 mph11.3 kmh 30.79 in1042.7 mb 0.00 in0.0 mm 0.00 in0.0 mm 0.13 in3.3 mm
10:40 PM 22.1°F-5.5°C 14.2°F-9.9°C 71% 2.0 mph NNE3.2 kmh NNE 6.0 mph9.7 kmh 30.79 in1042.7 mb 0.00 in0.0 mm 0.00 in0.0 mm 0.13 in3.3 mm
10:45 PM 21.9°F-5.6°C 14.2°F-9.9°C 72% 1.0 mph NNE1.6 kmh NNE 6.0 mph9.7 kmh 30.79 in1042.7 mb 0.00 in0.0 mm 0.00 in0.0 mm 0.13 in3.3 mm
10:50 PM 21.7°F-5.7°C 14.0°F-10.0°C 72% 1.0 mph NNE1.6 kmh NNE 4.0 mph6.4 kmh 30.79 in1042.7 mb 0.00 in0.0 mm 0.00 in0.0 mm 0.13 in3.3 mm
10:55 PM 21.6°F-5.8°C 14.0°F-10.0°C 72% 1.0 mph NNE1.6 kmh NNE 4.0 mph6.4 kmh 30.79 in1042.7 mb 0.00 in0.0 mm 0.00 in0.0 mm 0.13 in3.3 mm
11:00 PM 21.6°F-5.8°C 14.2°F-9.9°C 73% 1.0 mph NNE1.6 kmh NNE 4.0 mph6.4 kmh 30.80 in1043.0 mb 0.00 in0.0 mm 0.00 in0.0 mm 0.13 in3.3 mm
11:05 PM 21.4°F-5.9°C 14.0°F-10.0°C 73% 1.0 mph NNE1.6 kmh NNE 4.0 mph6.4 kmh 30.80 in1043.0 mb 0.00 in0.0 mm 0.00 in0.0 mm 0.13 in3.3 mm
11:10 PM 21.2°F-6.0°C 14.2°F-9.9°C 74% 1.0 mph N1.6 kmh N 4.0 mph6.4 kmh 30.80 in1043.0 mb 0.00 in0.0 mm 0.00 in0.0 mm 0.13 in3.3 mm
11:15 PM 21.0°F-6.1°C 14.0°F-10.0°C 74% 1.0 mph N1.6 kmh N 4.0 mph6.4 kmh 30.80 in1043.0 mb 0.00 in0.0 mm 0.00 in0.0 mm 0.13 in3.3 mm
11:20 PM 20.8°F-6.2°C 14.2°F-9.9°C 75% Calm Calm 4.0 mph6.4 kmh 30.80 in1043.0 mb 0.00 in0.0 mm 0.00 in0.0 mm 0.13 in3.3 mm
11:25 PM 20.8°F-6.2°C 14.2°F-9.9°C 75% Calm Calm 3.0 mph4.8 kmh 30.80 in1043.0 mb 0.00 in0.0 mm 0.00 in0.0 mm 0.13 in3.3 mm
11:30 PM 20.7°F-6.3°C 14.0°F-10.0°C 75% Calm Calm 3.0 mph4.8 kmh 30.81 in1043.3 mb 0.00 in0.0 mm 0.00 in0.0 mm 0.13 in3.3 mm
11:40 PM 20.5°F-6.4°C 14.0°F-10.0°C 76% Calm Calm 2.0 mph3.2 kmh 30.81 in1043.3 mb 0.00 in0.0 mm 0.00 in0.0 mm 0.13 in3.3 mm
11:45 PM 20.1°F-6.6°C 13.8°F-10.1°C 76% Calm Calm 2.0 mph3.2 kmh 30.81 in1043.3 mb 0.00 in0.0 mm 0.00 in0.0 mm 0.13 in3.3 mm
11:50 PM 20.1°F-6.6°C 14.2°F-9.9°C 77% Calm Calm 2.0 mph3.2 kmh 30.81 in1043.3 mb 0.00 in0.0 mm 0.00 in0.0 mm 0.13 in3.3 mm
11:55 PM 20.1°F-6.6°C 14.2°F-9.9°C 77% 1.0 mph N1.6 kmh N 2.0 mph3.2 kmh 30.81 in1043.3 mb 0.00 in0.0 mm 0.00 in0.0 mm 0.13 in3.3 mm